Time;durP1;ratioP1;P1;durP2;ratioP2;P2;SDS_P1;SDS_P2;PMS_P1;PMS_P2;Temp;Humidity;BMP_temperature;BMP_pressure;BME280_temperature;BME280_humidity;BME280_pressure;Samples;Min_cycle;Max_cycle;Signal;HPM_P1;HPM_P2
2023/03/29 00:01:02;;;;;;;0.70;0.70;;;9.40;99.90;;;;;;4991991;28;20207;-67
2023/03/29 00:03:29;;;;;;;0.60;0.60;;;9.40;99.90;;;;;;4992908;28;20808;-65
2023/03/29 00:06:01;;;;;;;0.60;0.60;;;9.40;99.90;;;;;;5003553;28;20245;-66
2023/03/29 00:08:32;;;;;;;0.50;0.50;;;9.50;99.90;;;;;;4994567;28;20210;-66
2023/03/29 00:10:59;;;;;;;0.68;0.68;;;9.50;99.90;;;;;;4993373;28;20297;-66
2023/03/29 00:13:27;;;;;;;0.70;0.70;;;9.50;99.90;;;;;;4992417;28;20229;-66
2023/03/29 00:15:54;;;;;;;0.60;0.60;;;9.50;99.90;;;;;;4992700;28;20228;-65
2023/03/29 00:18:22;;;;;;;0.80;0.80;;;9.50;99.90;;;;;;4992265;28;20661;-65
2023/03/29 00:20:54;;;;;;;0.68;0.68;;;9.40;99.90;;;;;;4992063;28;20747;-66
2023/03/29 00:23:23;;;;;;;0.65;0.65;;;9.40;99.90;;;;;;4991951;28;20212;-67
2023/03/29 00:25:53;;;;;;;0.68;0.68;;;9.50;99.90;;;;;;4991609;28;20322;-66
2023/03/29 00:28:20;;;;;;;0.60;0.60;;;9.50;99.90;;;;;;4991956;28;20214;-66
2023/03/29 00:30:49;;;;;;;0.70;0.70;;;9.50;99.90;;;;;;4992028;28;20301;-65
2023/03/29 00:33:17;;;;;;;0.75;0.73;;;9.50;99.90;;;;;;4993037;28;20961;-67
2023/03/29 00:35:45;;;;;;;0.75;0.75;;;9.50;99.90;;;;;;4993233;28;20236;-66
2023/03/29 00:38:12;;;;;;;0.60;0.60;;;9.60;99.90;;;;;;4992764;28;20273;-65
2023/03/29 00:40:42;;;;;;;0.80;0.80;;;9.60;99.90;;;;;;4991271;28;20206;-67
2023/03/29 00:43:11;;;;;;;0.70;0.70;;;9.60;99.90;;;;;;4996692;28;20213;-65
2023/03/29 00:45:38;;;;;;;0.67;0.67;;;9.60;99.90;;;;;;4996141;28;20296;-66
2023/03/29 00:48:07;;;;;;;0.63;0.63;;;9.60;99.90;;;;;;4995468;28;20227;-67
2023/03/29 00:50:38;;;;;;;0.80;0.80;;;9.60;99.90;;;;;;4994102;28;20210;-65
2023/03/29 00:53:09;;;;;;;0.70;0.70;;;9.50;99.90;;;;;;4995309;28;20214;-65
2023/03/29 00:55:41;;;;;;;0.70;0.70;;;9.50;99.90;;;;;;4993667;28;20670;-64
2023/03/29 00:58:11;;;;;;;0.68;0.68;;;9.50;99.90;;;;;;4995188;28;20206;-66
2023/03/29 01:00:46;;;;;;;0.60;0.60;;;9.50;99.90;;;;;;4994484;28;20205;-66
2023/03/29 01:03:23;;;;;;;0.50;0.50;;;9.40;99.90;;;;;;4995584;28;20580;-66
2023/03/29 01:05:56;;;;;;;0.70;0.70;;;9.40;99.90;;;;;;4995761;28;20315;-66
2023/03/29 01:08:26;;;;;;;0.65;0.65;;;9.40;99.90;;;;;;4995323;28;20210;-64
2023/03/29 01:10:58;;;;;;;0.70;0.70;;;9.50;99.90;;;;;;4994486;28;20213;-67
2023/03/29 01:13:33;;;;;;;0.60;0.60;;;9.50;99.90;;;;;;4995299;28;20612;-65
2023/03/29 01:16:03;;;;;;;0.60;0.60;;;9.70;99.90;;;;;;5005363;28;20332;-66
2023/03/29 01:18:30;;;;;;;0.85;0.85;;;9.80;99.90;;;;;;5000750;28;20205;-66
2023/03/29 01:21:22;;;;;;;0.50;0.50;;;10.10;99.90;;;;;;4989529;28;20307;-65
2023/03/29 01:24:20;;;;;;;0.50;0.50;;;10.30;99.90;;;;;;4995097;28;20209;-67
2023/03/29 01:26:55;;;;;;;0.57;0.57;;;10.50;99.90;;;;;;4976271;28;20214;-66
2023/03/29 01:29:28;;;;;;;0.57;0.57;;;10.60;99.90;;;;;;4994973;28;20213;-65
2023/03/29 01:31:59;;;;;;;0.40;0.40;;;10.70;99.90;;;;;;4997142;28;20206;-65
2023/03/29 01:34:33;;;;;;;0.60;0.60;;;10.80;99.90;;;;;;5006130;28;20233;-66
2023/03/29 01:37:05;;;;;;;0.77;0.52;;;10.80;99.90;;;;;;5006126;28;20784;-66
2023/03/29 01:39:33;;;;;;;0.70;0.70;;;10.90;99.90;;;;;;4995151;28;20292;-67
2023/03/29 01:42:12;;;;;;;0.73;0.73;;;10.90;99.90;;;;;;4995657;28;20214;-66
2023/03/29 01:44:50;;;;;;;0.70;0.70;;;10.90;99.90;;;;;;4995621;28;20355;-66
2023/03/29 01:47:23;;;;;;;0.90;0.90;;;10.90;99.90;;;;;;4995231;28;20212;-67
2023/03/29 01:49:58;;;;;;;0.70;0.70;;;10.80;99.90;;;;;;4994186;28;20216;-66
2023/03/29 01:52:29;;;;;;;0.75;0.60;;;10.90;99.90;;;;;;4994529;28;20201;-65
2023/03/29 01:55:02;;;;;;;0.60;0.60;;;10.80;99.90;;;;;;4994828;28;20242;-65
2023/03/29 01:57:32;;;;;;;0.70;0.70;;;10.70;99.90;;;;;;4994909;28;20228;-67
2023/03/29 02:00:09;;;;;;;0.60;0.60;;;10.70;99.90;;;;;;4993546;28;20209;-66
2023/03/29 02:02:39;;;;;;;0.60;0.60;;;10.80;99.90;;;;;;4995050;28;20201;-66
2023/03/29 02:05:08;;;;;;;0.60;0.60;;;10.70;99.90;;;;;;4994618;28;20257;-65
2023/03/29 02:07:39;;;;;;;0.47;0.47;;;10.60;99.90;;;;;;4995056;28;20221;-65
2023/03/29 02:10:08;;;;;;;0.70;0.70;;;10.60;99.90;;;;;;4993808;28;20214;-67
2023/03/29 02:12:36;;;;;;;0.70;0.70;;;10.50;99.90;;;;;;4994495;28;20206;-65
2023/03/29 02:15:11;;;;;;;0.50;0.50;;;10.50;99.90;;;;;;4994755;28;20230;-67
2023/03/29 02:17:38;;;;;;;0.38;0.38;;;10.40;99.90;;;;;;4997908;28;20256;-67
2023/03/29 02:20:13;;;;;;;0.60;0.60;;;10.40;99.90;;;;;;4998663;28;20237;-66
2023/03/29 02:22:45;;;;;;;0.73;0.68;;;10.30;99.90;;;;;;4996144;28;20241;-66
2023/03/29 02:25:12;;;;;;;0.70;0.70;;;10.30;99.90;;;;;;5002120;28;20290;-67
2023/03/29 02:27:39;;;;;;;0.60;0.60;;;10.30;99.90;;;;;;4994979;28;20205;-65
2023/03/29 02:30:10;;;;;;;0.75;0.75;;;10.30;99.90;;;;;;4993615;28;20210;-66
2023/03/29 02:32:44;;;;;;;0.60;0.60;;;10.30;99.90;;;;;;4994652;28;20210;-67
2023/03/29 02:35:14;;;;;;;0.57;0.57;;;10.30;99.90;;;;;;4999271;28;20264;-65
2023/03/29 02:37:45;;;;;;;0.63;0.63;;;10.40;99.90;;;;;;4995202;28;20210;-65
2023/03/29 02:40:14;;;;;;;0.50;0.50;;;10.30;99.90;;;;;;4994148;28;20260;-66
2023/03/29 02:42:43;;;;;;;0.40;0.40;;;10.30;99.90;;;;;;4994845;28;20249;-66
2023/03/29 02:45:14;;;;;;;0.85;0.70;;;10.30;99.90;;;;;;4996757;28;20659;-65
2023/03/29 02:47:46;;;;;;;0.57;0.57;;;10.30;99.90;;;;;;4997403;28;20278;-65
2023/03/29 02:50:13;;;;;;;0.57;0.57;;;10.30;99.90;;;;;;4993802;28;20202;-66
2023/03/29 02:52:45;;;;;;;0.40;0.40;;;10.30;99.90;;;;;;4994551;28;20220;-66
2023/03/29 02:55:17;;;;;;;0.52;0.52;;;10.20;99.90;;;;;;4994397;28;20244;-67
2023/03/29 02:57:44;;;;;;;0.50;0.50;;;10.20;99.90;;;;;;4994864;28;20292;-66
2023/03/29 03:00:18;;;;;;;0.60;0.60;;;10.20;99.90;;;;;;4994600;28;20218;-67
2023/03/29 03:02:46;;;;;;;0.60;0.60;;;10.20;99.90;;;;;;5007836;28;20205;-65
2023/03/29 03:05:13;;;;;;;0.70;0.70;;;10.20;99.90;;;;;;5010502;28;20246;-67
2023/03/29 03:07:40;;;;;;;0.73;0.73;;;10.20;99.90;;;;;;5010688;28;20241;-65
2023/03/29 03:10:08;;;;;;;1.07;0.70;;;10.30;99.90;;;;;;5010194;28;20202;-66
2023/03/29 03:12:36;;;;;;;0.60;0.60;;;10.20;99.90;;;;;;5008407;28;20237;-67
2023/03/29 03:15:04;;;;;;;0.68;0.68;;;10.20;99.90;;;;;;4995660;28;20226;-66
2023/03/29 03:17:33;;;;;;;0.60;0.60;;;10.10;99.90;;;;;;4993633;28;20221;-66
2023/03/29 03:19:59;;;;;;;0.63;0.63;;;10.10;99.90;;;;;;4992599;28;20673;-67
2023/03/29 03:22:26;;;;;;;0.77;0.77;;;10.10;99.90;;;;;;4992969;28;20206;-64
2023/03/29 03:24:53;;;;;;;0.60;0.60;;;10.00;99.90;;;;;;4997148;28;20222;-66
2023/03/29 03:27:20;;;;;;;0.57;0.57;;;10.00;99.90;;;;;;5005985;28;20225;-66
2023/03/29 03:29:47;;;;;;;0.50;0.50;;;10.00;99.90;;;;;;4991728;28;20765;-66
2023/03/29 03:32:14;;;;;;;0.65;0.65;;;10.00;99.90;;;;;;4992238;28;20591;-65
2023/03/29 03:34:42;;;;;;;0.70;0.70;;;10.00;99.90;;;;;;4991850;28;20236;-64
2023/03/29 03:37:11;;;;;;;0.68;0.68;;;9.90;99.90;;;;;;4991833;28;20831;-66
2023/03/29 03:39:38;;;;;;;0.57;0.57;;;9.90;99.90;;;;;;4991194;28;20210;-66
2023/03/29 03:42:05;;;;;;;0.40;0.40;;;9.90;99.90;;;;;;4992234;28;20214;-67
2023/03/29 03:44:31;;;;;;;0.88;0.60;;;9.90;99.90;;;;;;4991504;28;20264;-65
2023/03/29 03:46:58;;;;;;;0.63;0.60;;;9.90;99.90;;;;;;4991083;28;20215;-66
2023/03/29 03:49:25;;;;;;;0.55;0.55;;;9.80;99.90;;;;;;4991942;28;20689;-64
2023/03/29 03:51:53;;;;;;;0.40;0.40;;;9.90;99.90;;;;;;4993053;28;20218;-67
2023/03/29 03:54:20;;;;;;;0.60;0.60;;;9.90;99.90;;;;;;4993489;28;20591;-66
2023/03/29 03:56:47;;;;;;;0.50;0.50;;;9.90;99.90;;;;;;4992919;28;20296;-67
2023/03/29 03:59:15;;;;;;;0.60;0.60;;;9.90;99.90;;;;;;4991928;28;20206;-66
2023/03/29 04:01:43;;;;;;;0.60;0.60;;;9.90;99.90;;;;;;5002273;28;20236;-67
2023/03/29 04:04:10;;;;;;;0.70;0.70;;;10.00;99.90;;;;;;4999441;28;20210;-65
2023/03/29 04:06:37;;;;;;;0.50;0.50;;;10.00;99.90;;;;;;4992359;28;20261;-66
2023/03/29 04:09:05;;;;;;;0.75;0.60;;;10.00;99.90;;;;;;4991976;28;20252;-66
2023/03/29 04:11:32;;;;;;;0.70;0.70;;;10.00;99.90;;;;;;4992005;28;20206;-65
2023/03/29 04:14:00;;;;;;;0.30;0.30;;;10.00;99.90;;;;;;4994533;28;20214;-67
2023/03/29 04:16:27;;;;;;;0.60;0.60;;;10.00;99.90;;;;;;4991094;28;20225;-66
2023/03/29 04:18:54;;;;;;;0.60;0.60;;;10.00;99.90;;;;;;4991715;28;20877;-65
2023/03/29 04:21:21;;;;;;;0.60;0.60;;;10.00;99.90;;;;;;4990301;28;20205;-66
2023/03/29 04:23:47;;;;;;;0.57;0.57;;;10.00;99.90;;;;;;4991629;28;20297;-66
2023/03/29 04:26:16;;;;;;;0.60;0.60;;;10.00;99.90;;;;;;4992708;28;20596;-65
2023/03/29 04:28:44;;;;;;;0.57;0.57;;;10.00;99.90;;;;;;4992990;28;20261;-66
2023/03/29 04:31:11;;;;;;;0.73;0.73;;;10.00;99.90;;;;;;4989150;28;20289;-66
2023/03/29 04:33:39;;;;;;;0.70;0.70;;;10.00;99.90;;;;;;4991103;28;20256;-65
2023/03/29 04:36:07;;;;;;;0.40;0.40;;;9.90;99.90;;;;;;4985661;28;20232;-66
2023/03/29 04:38:34;;;;;;;0.73;0.73;;;9.90;99.90;;;;;;4993217;28;20210;-65
2023/03/29 04:41:02;;;;;;;0.63;0.63;;;9.90;99.90;;;;;;4992785;28;20210;-66
2023/03/29 04:43:31;;;;;;;0.70;0.70;;;9.80;99.90;;;;;;4993013;28;20237;-64
2023/03/29 04:45:58;;;;;;;0.70;0.70;;;9.90;99.90;;;;;;4992828;28;20221;-65
2023/03/29 04:48:25;;;;;;;0.70;0.70;;;9.90;99.90;;;;;;4992190;28;20206;-64
2023/03/29 04:50:53;;;;;;;0.70;0.70;;;9.80;99.90;;;;;;4990814;28;20210;-65
2023/03/29 04:53:20;;;;;;;0.85;0.85;;;9.80;99.90;;;;;;4991830;28;20236;-65
2023/03/29 04:55:48;;;;;;;0.70;0.70;;;9.80;99.90;;;;;;4991146;28;20226;-65
2023/03/29 04:58:15;;;;;;;0.60;0.60;;;9.80;99.90;;;;;;4991223;28;20300;-64
2023/03/29 05:00:44;;;;;;;0.60;0.60;;;9.80;99.90;;;;;;4990388;28;20210;-64
2023/03/29 05:03:13;;;;;;;0.60;0.60;;;9.80;99.90;;;;;;4991983;28;20206;-65
2023/03/29 05:05:40;;;;;;;0.52;0.52;;;9.70;99.90;;;;;;4991633;28;20697;-65
2023/03/29 05:08:08;;;;;;;0.70;0.70;;;9.70;99.90;;;;;;4997636;28;20216;-66
2023/03/29 05:10:35;;;;;;;0.70;0.70;;;9.60;99.90;;;;;;4991270;28;20296;-65
2023/03/29 05:13:02;;;;;;;0.63;0.63;;;9.60;99.90;;;;;;4991944;28;20210;-64
2023/03/29 05:15:29;;;;;;;0.70;0.70;;;9.50;99.90;;;;;;4992097;28;20234;-65
2023/03/29 05:17:59;;;;;;;0.60;0.60;;;9.50;99.90;;;;;;4992268;28;20632;-65
2023/03/29 05:20:27;;;;;;;0.50;0.50;;;9.40;99.90;;;;;;4991439;28;20213;-65
2023/03/29 05:22:54;;;;;;;0.70;0.70;;;9.40;99.90;;;;;;4991735;28;20206;-64
2023/03/29 05:25:21;;;;;;;0.70;0.70;;;9.40;99.90;;;;;;4991079;28;20739;-64
2023/03/29 05:27:47;;;;;;;0.80;0.80;;;9.40;99.90;;;;;;4993350;28;20206;-65
2023/03/29 05:30:15;;;;;;;0.70;0.70;;;9.40;99.90;;;;;;4994636;28;20640;-64
2023/03/29 05:32:42;;;;;;;0.70;0.70;;;9.40;99.90;;;;;;4995796;28;20210;-64
2023/03/29 05:35:10;;;;;;;0.60;0.60;;;9.40;99.90;;;;;;4995583;28;20232;-63
2023/03/29 05:37:37;;;;;;;0.80;0.80;;;9.50;99.90;;;;;;4996610;28;20645;-65
2023/03/29 05:40:09;;;;;;;0.70;0.70;;;9.50;99.90;;;;;;4994612;28;20256;-64
2023/03/29 05:42:36;;;;;;;0.55;0.55;;;9.50;99.90;;;;;;4992822;28;20240;-63
2023/03/29 05:45:04;;;;;;;0.73;0.73;;;9.40;99.90;;;;;;4992556;28;20697;-63
2023/03/29 05:47:31;;;;;;;1.02;1.02;;;9.50;99.90;;;;;;4993243;28;20855;-65
2023/03/29 05:49:58;;;;;;;0.73;0.73;;;9.50;99.90;;;;;;4991918;28;20214;-65
2023/03/29 05:52:26;;;;;;;0.70;0.70;;;9.50;99.90;;;;;;4989562;28;20649;-64
2023/03/29 05:54:53;;;;;;;0.88;0.88;;;9.50;99.90;;;;;;4990199;28;20226;-63
2023/03/29 05:57:20;;;;;;;0.70;0.70;;;9.50;99.90;;;;;;4994720;28;20577;-64
2023/03/29 05:59:47;;;;;;;0.70;0.70;;;9.50;99.90;;;;;;4995309;28;20245;-63
2023/03/29 06:02:14;;;;;;;0.57;0.57;;;9.60;99.90;;;;;;4995182;28;20214;-63
2023/03/29 06:04:42;;;;;;;0.70;0.70;;;9.60;99.90;;;;;;4995521;28;20695;-63
2023/03/29 06:07:11;;;;;;;0.80;0.80;;;9.70;99.90;;;;;;4995465;28;20202;-64
2023/03/29 06:09:39;;;;;;;0.95;0.95;;;9.70;99.90;;;;;;4994910;28;20205;-65
2023/03/29 06:12:07;;;;;;;0.90;0.90;;;9.60;99.90;;;;;;4994743;28;20766;-65
2023/03/29 06:14:34;;;;;;;0.90;0.90;;;9.60;99.90;;;;;;4996655;28;20226;-66
2023/03/29 06:17:01;;;;;;;0.82;0.82;;;9.60;99.90;;;;;;4996598;28;20689;-63
2023/03/29 06:19:28;;;;;;;0.80;0.80;;;9.60;99.90;;;;;;4995756;28;20210;-64
2023/03/29 06:21:55;;;;;;;0.73;0.73;;;9.60;99.90;;;;;;4996734;28;20210;-65
2023/03/29 06:24:23;;;;;;;1.00;0.70;;;9.70;99.90;;;;;;5002283;28;20206;-65
2023/03/29 06:26:52;;;;;;;1.05;0.98;;;9.70;99.90;;;;;;5008788;28;20237;-64
2023/03/29 06:29:19;;;;;;;0.70;0.70;;;9.80;99.90;;;;;;5015031;28;20202;-63
2023/03/29 06:31:45;;;;;;;0.70;0.70;;;9.80;99.90;;;;;;5016422;28;20216;-64
2023/03/29 06:34:12;;;;;;;0.80;0.77;;;9.80;99.90;;;;;;5016372;28;20217;-65
2023/03/29 06:36:39;;;;;;;0.70;0.70;;;9.80;99.90;;;;;;5012912;28;20234;-65
2023/03/29 06:39:06;;;;;;;1.00;0.90;;;9.70;99.90;;;;;;4997170;28;20320;-65
2023/03/29 06:41:33;;;;;;;0.82;0.82;;;9.80;99.90;;;;;;4995930;28;20214;-66
2023/03/29 06:44:02;;;;;;;0.80;0.80;;;9.80;99.90;;;;;;4995519;28;20324;-64
2023/03/29 06:46:29;;;;;;;0.60;0.60;;;9.80;99.90;;;;;;4994245;28;20229;-65
2023/03/29 06:48:56;;;;;;;0.85;0.85;;;9.80;99.90;;;;;;4994127;28;20749;-64
2023/03/29 06:51:23;;;;;;;0.70;0.70;;;9.90;99.90;;;;;;4993389;28;20214;-65
2023/03/29 06:53:50;;;;;;;0.70;0.70;;;10.00;99.90;;;;;;4994235;28;20208;-63
2023/03/29 06:56:17;;;;;;;0.80;0.80;;;10.00;99.90;;;;;;4994039;28;20778;-63
2023/03/29 06:58:45;;;;;;;1.00;1.00;;;10.10;99.90;;;;;;4993754;28;20229;-64
2023/03/29 07:01:14;;;;;;;0.77;0.77;;;10.20;99.90;;;;;;4992227;28;20244;-63
2023/03/29 07:03:41;;;;;;;0.90;0.70;;;10.20;99.90;;;;;;4992909;28;20209;-65
2023/03/29 07:06:10;;;;;;;1.20;0.75;;;10.30;99.90;;;;;;4993451;28;20222;-64
2023/03/29 07:08:42;;;;;;;0.70;0.70;;;10.30;99.90;;;;;;4993894;28;20245;-65
2023/03/29 07:11:11;;;;;;;0.75;0.75;;;10.40;99.90;;;;;;4996049;28;20217;-65
2023/03/29 07:13:39;;;;;;;0.68;0.68;;;10.40;99.90;;;;;;4993271;28;20214;-65
2023/03/29 07:16:07;;;;;;;0.80;0.80;;;10.40;99.90;;;;;;4992781;28;20230;-63
2023/03/29 07:18:35;;;;;;;0.70;0.70;;;10.40;99.90;;;;;;4993043;28;20661;-65
2023/03/29 07:21:03;;;;;;;0.60;0.60;;;10.50;99.90;;;;;;4992869;28;20208;-64
2023/03/29 07:23:30;;;;;;;0.70;0.70;;;10.50;99.90;;;;;;4992666;28;20202;-63
2023/03/29 07:25:57;;;;;;;0.87;0.80;;;10.60;99.90;;;;;;4993059;28;20713;-66
2023/03/29 07:28:23;;;;;;;1.17;0.90;;;10.60;99.90;;;;;;4993455;28;20216;-64
2023/03/29 07:30:50;;;;;;;0.75;0.75;;;10.70;99.90;;;;;;4992793;28;20212;-65
2023/03/29 07:33:17;;;;;;;0.65;0.65;;;10.70;99.90;;;;;;4992777;28;20206;-65
2023/03/29 07:35:46;;;;;;;0.90;0.85;;;10.80;99.90;;;;;;4993047;28;20293;-64
2023/03/29 07:38:14;;;;;;;0.65;0.65;;;10.80;99.90;;;;;;4993316;28;20206;-65
2023/03/29 07:40:41;;;;;;;0.80;0.80;;;10.90;99.90;;;;;;4996483;28;20327;-64
2023/03/29 07:43:09;;;;;;;0.80;0.80;;;10.90;99.90;;;;;;4993395;28;20241;-66
2023/03/29 07:45:38;;;;;;;0.70;0.70;;;11.00;99.90;;;;;;4993290;28;20288;-65
2023/03/29 07:48:07;;;;;;;0.80;0.80;;;11.00;99.90;;;;;;4993887;28;20214;-63
2023/03/29 07:50:34;;;;;;;0.75;0.75;;;11.10;99.90;;;;;;4992473;28;20213;-65
2023/03/29 07:53:02;;;;;;;1.00;1.00;;;11.10;99.90;;;;;;4992694;28;20206;-65
2023/03/29 07:55:29;;;;;;;0.90;0.90;;;11.20;99.90;;;;;;4992470;28;20701;-65
2023/03/29 07:57:56;;;;;;;0.70;0.70;;;11.30;99.90;;;;;;4997281;28;20209;-65
2023/03/29 08:00:23;;;;;;;0.80;0.80;;;11.30;99.90;;;;;;4992638;28;20212;-64
2023/03/29 08:02:52;;;;;;;0.70;0.70;;;11.40;99.90;;;;;;4992629;28;20241;-64
2023/03/29 08:05:20;;;;;;;0.70;0.70;;;11.40;99.90;;;;;;4992801;28;20225;-64
2023/03/29 08:07:48;;;;;;;0.70;0.70;;;11.50;99.90;;;;;;4996736;28;20638;-65
2023/03/29 08:10:18;;;;;;;0.73;0.73;;;11.60;99.90;;;;;;4992886;28;20240;-64
2023/03/29 08:12:47;;;;;;;0.90;0.90;;;11.70;99.90;;;;;;4992529;28;20205;-66
2023/03/29 08:15:15;;;;;;;0.70;0.70;;;11.80;99.90;;;;;;4992705;28;20280;-64
2023/03/29 08:17:42;;;;;;;0.60;0.60;;;11.90;99.90;;;;;;4997838;28;20214;-65
2023/03/29 08:20:11;;;;;;;0.70;0.70;;;12.00;99.90;;;;;;4992140;28;20210;-64
2023/03/29 08:22:39;;;;;;;0.88;0.88;;;12.10;99.90;;;;;;4992389;28;20297;-65
2023/03/29 08:25:07;;;;;;;1.02;0.80;;;12.30;99.90;;;;;;4993221;28;20619;-65
2023/03/29 08:27:36;;;;;;;0.70;0.70;;;12.40;99.90;;;;;;4993226;28;20273;-65
2023/03/29 08:30:04;;;;;;;0.98;0.80;;;12.50;99.90;;;;;;4995405;28;20305;-65
2023/03/29 08:32:31;;;;;;;0.63;0.63;;;12.60;99.90;;;;;;4993058;28;20221;-65
2023/03/29 08:34:58;;;;;;;0.60;0.60;;;12.80;99.90;;;;;;4992239;28;20300;-65
2023/03/29 08:37:24;;;;;;;0.70;0.70;;;13.00;99.90;;;;;;4991677;28;20708;-64
2023/03/29 08:39:51;;;;;;;0.80;0.80;;;13.20;99.90;;;;;;4992117;28;20206;-65
2023/03/29 08:42:35;;;;;;;0.88;0.88;;;13.40;99.90;;;;;;4992074;28;20217;-65
2023/03/29 08:45:09;;;;;;;0.63;0.63;;;13.60;99.90;;;;;;4992421;28;20328;-64
2023/03/29 08:47:45;;;;;;;0.80;0.80;;;13.70;99.90;;;;;;4991983;28;20231;-65
2023/03/29 08:50:13;;;;;;;1.00;1.00;;;13.80;99.90;;;;;;4991191;28;20216;-66
2023/03/29 08:52:44;;;;;;;0.82;0.82;;;13.90;99.90;;;;;;4992171;28;20224;-65
2023/03/29 08:55:30;;;;;;;0.90;0.90;;;14.10;99.90;;;;;;5000475;28;20237;-65
2023/03/29 08:57:59;;;;;;;1.67;1.00;;;14.20;99.90;;;;;;4998000;28;20293;-65
2023/03/29 09:00:34;;;;;;;0.70;0.70;;;14.30;99.90;;;;;;4991699;28;20264;-65
2023/03/29 09:03:02;;;;;;;0.68;0.68;;;14.40;99.90;;;;;;4994372;28;20228;-64
2023/03/29 09:05:34;;;;;;;0.70;0.70;;;14.80;99.90;;;;;;4995873;28;20701;-66
2023/03/29 09:08:01;;;;;;;1.45;0.90;;;14.80;99.90;;;;;;4996213;28;20210;-65
2023/03/29 09:10:36;;;;;;;0.90;0.90;;;14.90;99.90;;;;;;4995238;28;20685;-65
2023/03/29 09:13:16;;;;;;;1.00;1.00;;;15.00;99.90;;;;;;4995460;28;20263;-64
2023/03/29 09:15:52;;;;;;;1.13;1.08;;;15.00;99.90;;;;;;4995301;28;20726;-66
2023/03/29 09:18:29;;;;;;;0.93;0.93;;;15.10;99.90;;;;;;4995753;28;20201;-63
2023/03/29 09:21:00;;;;;;;0.75;0.75;;;15.20;99.90;;;;;;4994987;28;20680;-63
2023/03/29 09:24:01;;;;;;;1.50;0.80;;;15.30;99.90;;;;;;4995288;28;20206;-65
2023/03/29 09:26:36;;;;;;;0.70;0.70;;;15.40;99.90;;;;;;4995477;28;20272;-65
2023/03/29 09:29:15;;;;;;;0.60;0.60;;;15.40;99.90;;;;;;4994926;28;20574;-65
2023/03/29 09:31:44;;;;;;;0.75;0.75;;;15.40;99.90;;;;;;4994875;28;20672;-64
2023/03/29 09:34:14;;;;;;;0.70;0.70;;;15.40;99.90;;;;;;4995483;28;20232;-65
2023/03/29 09:36:49;;;;;;;0.60;0.60;;;15.50;99.90;;;;;;4995116;28;20265;-64
2023/03/29 09:39:17;;;;;;;0.73;0.73;;;15.60;99.90;;;;;;4995099;28;20248;-64
2023/03/29 09:41:51;;;;;;;0.77;0.77;;;15.60;99.90;;;;;;4995198;28;20621;-64
2023/03/29 09:44:21;;;;;;;0.55;0.55;;;15.60;99.90;;;;;;4999165;28;20214;-63
2023/03/29 09:46:54;;;;;;;0.52;0.52;;;15.70;99.90;;;;;;4995255;28;20699;-64
2023/03/29 09:49:24;;;;;;;0.87;0.87;;;15.60;99.90;;;;;;4998148;28;20210;-64
2023/03/29 09:51:53;;;;;;;0.70;0.70;;;15.70;99.90;;;;;;4999498;28;20209;-63
2023/03/29 09:54:21;;;;;;;0.50;0.50;;;15.80;99.90;;;;;;5004780;28;20825;-66
2023/03/29 09:56:47;;;;;;;0.85;0.50;;;15.90;99.90;;;;;;5007581;28;20643;-65
2023/03/29 09:59:14;;;;;;;1.20;0.70;;;16.00;99.90;;;;;;5005148;28;20209;-65
2023/03/29 10:01:44;;;;;;;0.70;0.70;;;16.00;99.90;;;;;;4995886;28;20693;-64
2023/03/29 10:04:13;;;;;;;0.60;0.60;;;16.00;99.90;;;;;;4997718;28;20206;-64
2023/03/29 10:06:45;;;;;;;1.17;0.73;;;16.10;99.90;;;;;;4997012;28;20669;-65
2023/03/29 10:09:18;;;;;;;1.35;0.60;;;16.10;99.90;;;;;;4995326;28;20641;-65
2023/03/29 10:11:52;;;;;;;0.60;0.60;;;16.10;99.90;;;;;;4997416;28;20206;-65
2023/03/29 10:14:21;;;;;;;0.90;0.90;;;16.10;99.90;;;;;;4998155;28;20301;-65
2023/03/29 10:16:55;;;;;;;0.50;0.50;;;16.10;99.90;;;;;;4996251;28;20232;-64
2023/03/29 10:19:29;;;;;;;0.70;0.70;;;16.10;99.90;;;;;;4994851;28;20260;-63
2023/03/29 10:21:58;;;;;;;0.60;0.60;;;16.20;99.90;;;;;;4994467;28;20241;-65
2023/03/29 10:24:27;;;;;;;0.70;0.70;;;16.20;99.90;;;;;;4997424;28;20210;-64
2023/03/29 10:26:57;;;;;;;0.60;0.60;;;16.40;99.90;;;;;;4998545;28;20252;-65
2023/03/29 10:29:25;;;;;;;0.60;0.60;;;16.40;99.90;;;;;;4996914;28;20205;-65
2023/03/29 10:31:52;;;;;;;0.80;0.80;;;16.70;99.90;;;;;;4996921;28;20216;-66
2023/03/29 10:34:24;;;;;;;0.70;0.70;;;16.60;99.90;;;;;;4996313;28;20209;-63
2023/03/29 10:36:58;;;;;;;0.55;0.55;;;16.60;99.90;;;;;;4994443;28;20234;-63
2023/03/29 10:39:28;;;;;;;0.52;0.52;;;16.70;99.90;;;;;;4992839;28;20216;-64
2023/03/29 10:41:55;;;;;;;0.75;0.50;;;16.60;99.90;;;;;;4992730;28;20214;-65
2023/03/29 10:44:28;;;;;;;0.50;0.50;;;16.60;99.90;;;;;;4993996;28;20218;-66
2023/03/29 10:46:55;;;;;;;0.70;0.70;;;16.70;99.90;;;;;;4993861;28;20210;-64
2023/03/29 10:49:24;;;;;;;0.70;0.70;;;16.60;99.90;;;;;;4994515;28;20201;-64
2023/03/29 10:51:53;;;;;;;0.70;0.70;;;16.50;99.90;;;;;;4994257;28;20301;-64
2023/03/29 10:54:23;;;;;;;0.50;0.50;;;16.70;99.90;;;;;;4994736;28;20232;-65
2023/03/29 10:56:54;;;;;;;0.65;0.65;;;16.80;99.90;;;;;;4996272;28;20671;-64
2023/03/29 10:59:27;;;;;;;0.70;0.70;;;16.90;99.90;;;;;;4994585;28;20214;-65
2023/03/29 11:02:24;;;;;;;1.27;0.73;;;17.00;99.90;;;;;;4993399;28;20205;-64
2023/03/29 11:04:59;;;;;;;0.80;0.80;;;17.10;99.90;;;;;;4993860;28;20616;-65
2023/03/29 11:07:30;;;;;;;0.82;0.82;;;17.20;99.90;;;;;;4993920;28;20575;-64
2023/03/29 11:10:27;;;;;;;0.70;0.70;;;17.40;99.90;;;;;;4993358;28;20582;-65
2023/03/29 11:13:03;;;;;;;0.50;0.50;;;17.40;99.90;;;;;;4994333;28;20236;-64
2023/03/29 11:15:41;;;;;;;0.68;0.68;;;17.40;99.90;;;;;;4992929;28;20300;-63
2023/03/29 11:18:43;;;;;;;0.50;0.50;;;17.40;99.90;;;;;;4993547;28;20287;-65
2023/03/29 11:21:20;;;;;;;0.70;0.70;;;17.30;99.90;;;;;;4946357;28;20244;-64
2023/03/29 11:23:59;;;;;;;0.77;0.77;;;17.30;99.90;;;;;;4998086;28;20672;-65
2023/03/29 11:26:33;;;;;;;0.70;0.70;;;17.20;99.90;;;;;;4994241;28;20237;-65
2023/03/29 11:29:03;;;;;;;0.70;0.70;;;17.30;99.90;;;;;;4994919;28;20201;-65
2023/03/29 11:31:40;;;;;;;0.70;0.70;;;17.20;99.90;;;;;;4995605;28;20886;-64
2023/03/29 11:34:26;;;;;;;0.85;0.85;;;17.20;99.90;;;;;;4996155;28;20209;-64
2023/03/29 11:37:00;;;;;;;0.68;0.68;;;17.20;99.90;;;;;;4995566;28;20718;-65
2023/03/29 11:39:41;;;;;;;0.70;0.70;;;17.20;99.90;;;;;;4995020;28;20210;-64
2023/03/29 11:42:13;;;;;;;1.02;1.02;;;17.20;99.90;;;;;;4995225;28;20293;-65
2023/03/29 11:44:43;;;;;;;1.20;1.20;;;17.30;99.90;;;;;;4995124;28;20233;-65
2023/03/29 11:47:13;;;;;;;0.70;0.70;;;17.30;99.90;;;;;;4995085;28;20572;-64
2023/03/29 11:49:43;;;;;;;0.70;0.70;;;17.30;99.90;;;;;;4996078;28;20767;-65
2023/03/29 11:52:16;;;;;;;0.90;0.90;;;17.40;99.90;;;;;;4995840;28;20190;-65
2023/03/29 11:54:49;;;;;;;0.70;0.70;;;17.50;99.90;;;;;;4994320;28;20230;-64
2023/03/29 11:57:22;;;;;;;1.85;0.80;;;17.50;99.90;;;;;;4993626;28;20229;-64
2023/03/29 11:59:56;;;;;;;0.60;0.60;;;17.60;99.90;;;;;;4992746;28;20220;-64
2023/03/29 12:02:28;;;;;;;0.70;0.70;;;17.70;99.90;;;;;;4992959;28;20216;-64
2023/03/29 12:04:58;;;;;;;1.27;0.60;;;17.90;99.90;;;;;;4993078;28;20225;-65
2023/03/29 12:07:31;;;;;;;0.68;0.68;;;17.90;99.90;;;;;;4993443;28;20260;-65
2023/03/29 12:10:06;;;;;;;0.63;0.63;;;18.00;99.90;;;;;;4992664;28;20581;-65
2023/03/29 12:12:42;;;;;;;1.25;0.60;;;18.00;99.90;;;;;;4992258;28;21029;-65
2023/03/29 12:15:16;;;;;;;0.90;0.90;;;18.00;99.90;;;;;;4993448;28;20265;-64
2023/03/29 12:17:46;;;;;;;0.82;0.82;;;18.00;99.90;;;;;;4992243;28;20245;-65
2023/03/29 12:20:19;;;;;;;0.88;0.88;;;18.10;99.90;;;;;;4992075;28;20535;-65
2023/03/29 12:22:49;;;;;;;0.60;0.60;;;18.10;99.90;;;;;;4992476;28;20210;-65
2023/03/29 12:25:21;;;;;;;1.83;0.88;;;18.10;99.90;;;;;;4992557;28;20284;-65
2023/03/29 12:27:59;;;;;;;0.70;0.70;;;18.10;99.90;;;;;;4992879;28;20206;-64
2023/03/29 12:30:35;;;;;;;0.77;0.77;;;18.30;99.90;;;;;;4992391;28;20297;-64
2023/03/29 12:33:23;;;;;;;0.80;0.80;;;18.40;99.90;;;;;;4993135;28;20253;-65
2023/03/29 12:36:07;;;;;;;1.02;0.90;;;18.50;99.90;;;;;;4992526;28;20233;-65
2023/03/29 12:38:35;;;;;;;0.90;0.90;;;18.40;99.90;;;;;;4995563;28;20325;-64
2023/03/29 12:41:14;;;;;;;0.80;0.80;;;18.40;99.90;;;;;;4996063;28;20218;-63
2023/03/29 12:43:42;;;;;;;0.80;0.80;;;18.30;99.90;;;;;;4996630;28;20217;-64
2023/03/29 12:46:14;;;;;;;0.68;0.68;;;18.30;99.90;;;;;;4996175;28;20601;-66
2023/03/29 12:48:42;;;;;;;1.23;0.73;;;18.40;99.90;;;;;;4996408;28;20205;-65
2023/03/29 12:51:14;;;;;;;0.77;0.77;;;18.40;99.90;;;;;;5001885;28;20212;-64
2023/03/29 12:53:44;;;;;;;0.40;0.40;;;18.30;99.90;;;;;;4996806;28;20210;-65
2023/03/29 12:56:16;;;;;;;0.75;0.75;;;18.30;99.90;;;;;;4996456;28;20240;-64
2023/03/29 12:58:55;;;;;;;0.55;0.55;;;18.40;99.90;;;;;;4987638;28;20223;-65
2023/03/29 13:01:26;;;;;;;0.60;0.60;;;18.60;99.90;;;;;;4992577;28;20284;-65
2023/03/29 13:04:10;;;;;;;0.60;0.60;;;18.70;99.90;;;;;;4994359;28;20201;-64
2023/03/29 13:07:01;;;;;;;0.57;0.57;;;18.80;99.90;;;;;;4994867;28;20209;-64